createdAt,value
2022-09-15T00:01:01.077Z,74.57
2022-09-15T00:03:29.264Z,74.77
2022-09-15T00:05:56.487Z,74.86
2022-09-15T00:08:23.934Z,75.30
2022-09-15T00:10:53.358Z,75.83
2022-09-15T00:13:21.536Z,75.80
2022-09-15T00:15:48.967Z,75.02
2022-09-15T00:18:15.903Z,75.84
2022-09-15T00:20:44.277Z,75.93
2022-09-15T00:23:13.521Z,75.04
2022-09-15T00:25:49.191Z,75.17
2022-09-15T00:28:18.161Z,75.45
2022-09-15T00:30:51.230Z,75.33
2022-09-15T00:33:19.575Z,75.06
2022-09-15T00:35:48.214Z,75.53
2022-09-15T00:38:16.210Z,75.58
2022-09-15T00:40:46.572Z,75.78
2022-09-15T00:43:14.274Z,75.93
2022-09-15T00:45:41.830Z,75.99
2022-09-15T00:48:22.459Z,75.92
2022-09-15T00:50:56.154Z,75.84
2022-09-15T00:53:25.219Z,75.71
2022-09-15T00:55:52.647Z,76.61
2022-09-15T00:58:33.965Z,76.15
2022-09-15T01:01:03.569Z,76.33
2022-09-15T01:03:33.471Z,76.19
2022-09-15T01:06:16.086Z,76.33
2022-09-15T01:08:52.099Z,76.59
2022-09-15T01:11:19.788Z,76.97
2022-09-15T01:13:46.971Z,77.03
2022-09-15T01:19:17.340Z,77.45
2022-09-15T01:21:58.873Z,78.16
2022-09-15T01:25:02.585Z,78.05
2022-09-15T01:27:56.730Z,77.81
2022-09-15T01:30:25.679Z,77.90
2022-09-15T01:33:19.375Z,78.76
2022-09-15T01:36:24.374Z,78.01
2022-09-15T01:39:01.223Z,78.06
2022-09-15T01:41:34.849Z,78.12
2022-09-15T01:44:09.593Z,78.24
2022-09-15T01:46:47.305Z,77.69
2022-09-15T01:49:22.897Z,79.19
2022-09-15T01:51:52.679Z,78.86
2022-09-15T01:54:26.829Z,78.38
2022-09-15T01:56:53.725Z,78.64
2022-09-15T01:59:20.952Z,78.24
2022-09-15T02:01:54.234Z,78.54
2022-09-15T02:04:33.647Z,78.85
2022-09-15T02:07:21.541Z,78.89
2022-09-15T02:09:55.816Z,78.50
2022-09-15T02:12:42.993Z,78.44
2022-09-15T02:15:17.827Z,78.29
2022-09-15T02:17:50.834Z,78.26
2022-09-15T02:20:25.997Z,78.87
2022-09-15T02:23:00.479Z,79.11
2022-09-15T02:25:33.129Z,78.62
2022-09-15T02:28:07.593Z,79.58
2022-09-15T02:30:38.497Z,80.07
2022-09-15T02:33:08.644Z,79.15
2022-09-15T02:35:36.771Z,79.11
2022-09-15T02:38:07.561Z,78.73
2022-09-15T02:40:34.321Z,79.73
2022-09-15T02:43:02.873Z,79.03
2022-09-15T02:45:31.591Z,78.85
2022-09-15T02:47:59.557Z,78.75
2022-09-15T02:50:27.309Z,79.09
2022-09-15T02:52:55.881Z,79.51
2022-09-15T02:55:24.029Z,79.63
2022-09-15T02:57:50.964Z,79.95
2022-09-15T03:00:19.731Z,78.95
2022-09-15T03:02:51.680Z,79.09
2022-09-15T03:05:24.837Z,79.31
2022-09-15T03:07:52.245Z,79.16
2022-09-15T03:10:20.383Z,79.49
2022-09-15T03:12:50.069Z,79.34
2022-09-15T03:15:20.095Z,79.43
2022-09-15T03:17:47.949Z,80.05
2022-09-15T03:20:18.268Z,79.50
2022-09-15T03:22:45.238Z,79.42
2022-09-15T03:25:12.649Z,79.12
2022-09-15T03:27:40.134Z,78.96
2022-09-15T03:30:08.068Z,80.19
2022-09-15T03:32:35.181Z,79.98
2022-09-15T03:35:02.546Z,79.36
2022-09-15T03:37:29.509Z,80.25
2022-09-15T03:39:56.532Z,80.21
2022-09-15T03:42:23.485Z,79.65
2022-09-15T03:44:50.486Z,79.83
2022-09-15T03:47:17.589Z,79.52
2022-09-15T03:49:44.506Z,79.76
2022-09-15T03:52:11.449Z,79.29
2022-09-15T03:54:38.407Z,80.27
2022-09-15T03:57:05.459Z,80.27
2022-09-15T03:59:32.371Z,79.65
2022-09-15T04:01:59.419Z,79.43
2022-09-15T04:04:26.451Z,79.75
2022-09-15T04:06:53.609Z,79.84
2022-09-15T04:09:21.778Z,79.58
2022-09-15T04:11:49.169Z,79.84
2022-09-15T04:14:16.672Z,80.00
2022-09-15T04:16:43.673Z,80.30
2022-09-15T04:19:11.086Z,79.68
2022-09-15T04:21:38.211Z,79.81
2022-09-15T04:24:06.251Z,79.67
2022-09-15T04:26:36.192Z,79.52
2022-09-15T04:29:05.759Z,79.76
2022-09-15T04:31:34.247Z,79.45
2022-09-15T04:34:01.751Z,79.80
2022-09-15T04:36:29.761Z,79.65
2022-09-15T04:38:58.514Z,79.44
2022-09-15T04:41:26.807Z,79.46
2022-09-15T04:43:54.152Z,79.20
2022-09-15T04:46:21.347Z,79.22
2022-09-15T04:48:49.130Z,79.12
2022-09-15T04:51:21.757Z,79.66
2022-09-15T04:53:49.369Z,79.62
2022-09-15T04:56:19.679Z,79.38
2022-09-15T04:58:50.319Z,79.46
2022-09-15T05:01:23.728Z,79.60
2022-09-15T05:03:51.276Z,79.32
2022-09-15T05:06:22.523Z,80.75
2022-09-15T05:08:51.651Z,80.78
2022-09-15T05:11:19.763Z,80.67
2022-09-15T05:13:48.275Z,80.27
2022-09-15T05:16:21.252Z,79.93
2022-09-15T05:18:49.714Z,79.54
2022-09-15T05:21:19.576Z,79.36
2022-09-15T05:23:46.983Z,79.32
2022-09-15T05:26:15.951Z,79.26
2022-09-15T05:28:43.143Z,80.83
2022-09-15T05:31:12.653Z,80.04
2022-09-15T05:33:40.046Z,79.43
2022-09-15T05:36:10.032Z,80.08
2022-09-15T05:38:37.290Z,79.26
2022-09-15T05:41:05.189Z,80.12
2022-09-15T05:43:34.354Z,79.15
2022-09-15T05:46:01.812Z,79.57
2022-09-15T05:48:29.570Z,79.04
2022-09-15T05:50:57.261Z,79.36
2022-09-15T05:53:24.849Z,79.26
2022-09-15T05:55:59.357Z,79.56
2022-09-15T05:58:27.023Z,79.57
2022-09-15T06:00:54.436Z,79.28
2022-09-15T06:03:24.489Z,79.34
2022-09-15T06:06:05.847Z,79.05
2022-09-15T06:08:38.546Z,78.39
2022-09-15T06:11:10.447Z,78.48
2022-09-15T06:13:38.007Z,77.83
2022-09-15T06:16:08.008Z,78.82
2022-09-15T06:18:37.604Z,78.46
2022-09-15T06:21:14.021Z,79.71
2022-09-15T06:23:41.733Z,78.17
2022-09-15T06:26:12.891Z,77.44
2022-09-15T06:28:42.494Z,77.57
2022-09-15T06:31:13.987Z,77.44
2022-09-15T06:33:46.297Z,77.11
2022-09-15T06:36:14.938Z,76.94
2022-09-15T06:38:42.634Z,76.62
2022-09-15T06:41:11.827Z,77.06
2022-09-15T06:43:39.292Z,76.27
2022-09-15T06:46:21.562Z,75.50
2022-09-15T06:48:49.570Z,75.62
2022-09-15T06:51:19.553Z,75.64
2022-09-15T06:53:47.350Z,76.11
2022-09-15T06:56:17.265Z,76.37
2022-09-15T06:58:45.385Z,76.86
2022-09-15T07:01:14.717Z,74.51
2022-09-15T07:03:44.071Z,74.68
2022-09-15T07:06:14.606Z,75.64
2022-09-15T07:08:42.269Z,74.93
2022-09-15T07:11:10.843Z,75.15
2022-09-15T07:13:38.345Z,74.96
2022-09-15T07:16:08.647Z,74.75
2022-09-15T07:18:39.720Z,73.22
2022-09-15T07:21:13.089Z,72.13
2022-09-15T07:23:40.472Z,73.21
2022-09-15T07:26:23.774Z,72.23
2022-09-15T07:28:56.067Z,72.93
2022-09-15T07:31:25.706Z,73.70
2022-09-15T07:33:53.616Z,71.44
2022-09-15T07:36:20.984Z,71.76
2022-09-15T07:38:49.542Z,71.73
2022-09-15T07:41:19.406Z,71.79
2022-09-15T07:43:48.321Z,72.89
2022-09-15T07:46:16.812Z,72.03
2022-09-15T07:48:48.653Z,73.26
2022-09-15T07:51:16.441Z,73.15
2022-09-15T07:53:45.399Z,71.63
2022-09-15T07:56:12.802Z,71.87
2022-09-15T07:58:40.450Z,71.56
2022-09-15T08:01:11.813Z,70.36
2022-09-15T08:03:43.599Z,70.74
2022-09-15T08:06:11.517Z,70.19
2022-09-15T08:08:40.468Z,70.43
2022-09-15T08:11:09.698Z,69.20
2022-09-15T08:13:37.342Z,69.12
2022-09-15T08:16:07.507Z,70.97
2022-09-15T08:18:34.907Z,67.62
2022-09-15T08:21:06.709Z,68.03
2022-09-15T08:23:34.226Z,68.91
2022-09-15T08:26:01.181Z,69.77
2022-09-15T08:28:28.405Z,67.45
2022-09-15T08:31:03.874Z,67.53
2022-09-15T08:33:31.070Z,67.90
2022-09-15T08:36:03.356Z,67.80
2022-09-15T08:38:30.307Z,66.72
2022-09-15T08:41:07.269Z,65.59
2022-09-15T08:43:45.103Z,66.23
2022-09-15T08:46:19.298Z,64.74
2022-09-15T08:48:52.211Z,67.75
2022-09-15T08:51:35.598Z,64.16
2022-09-15T08:54:12.430Z,66.36
2022-09-15T08:56:42.107Z,64.72
2022-09-15T08:59:14.050Z,63.35
2022-09-15T09:01:58.479Z,63.62
2022-09-15T09:04:34.381Z,65.32
2022-09-15T09:07:16.401Z,65.88
2022-09-15T09:09:51.654Z,65.85
2022-09-15T09:12:42.219Z,64.71
2022-09-15T09:15:35.550Z,64.22
2022-09-15T09:18:32.616Z,63.37
2022-09-15T09:21:18.201Z,64.26
2022-09-15T09:23:56.330Z,63.46
2022-09-15T09:26:23.359Z,61.83
2022-09-15T09:28:59.168Z,61.22
2022-09-15T09:31:28.528Z,60.58
2022-09-15T09:34:17.078Z,60.14
2022-09-15T09:36:44.469Z,59.45
2022-09-15T09:39:15.526Z,59.88
2022-09-15T09:41:42.922Z,60.19
2022-09-15T09:44:15.316Z,59.59
2022-09-15T09:46:42.631Z,58.33
2022-09-15T09:49:17.159Z,56.16
2022-09-15T09:52:02.464Z,56.92
2022-09-15T09:54:32.571Z,58.44
2022-09-15T09:57:14.883Z,56.47
2022-09-15T09:59:50.453Z,56.07
2022-09-15T10:02:19.176Z,57.43
2022-09-15T10:04:48.677Z,57.67
2022-09-15T10:07:20.845Z,58.17
2022-09-15T10:09:50.824Z,55.92
2022-09-15T10:12:24.977Z,57.16
2022-09-15T10:14:55.768Z,57.56
2022-09-15T10:17:24.665Z,56.12
2022-09-15T10:19:57.327Z,55.37
2022-09-15T10:22:35.243Z,53.95
2022-09-15T10:25:23.419Z,54.97
2022-09-15T10:28:22.324Z,55.67
2022-09-15T10:31:16.050Z,55.05
2022-09-15T10:33:48.214Z,55.05
2022-09-15T10:36:21.930Z,54.51
2022-09-15T10:38:53.533Z,54.06
2022-09-15T10:41:32.116Z,54.78
2022-09-15T10:44:23.930Z,57.89
2022-09-15T10:46:58.749Z,54.71
2022-09-15T10:49:52.291Z,53.79
2022-09-15T10:52:40.796Z,54.00
2022-09-15T10:55:52.307Z,53.96
2022-09-15T10:58:29.377Z,54.32
2022-09-15T11:01:30.522Z,54.70
2022-09-15T11:04:18.918Z,54.71
2022-09-15T11:06:54.709Z,53.05
2022-09-15T11:09:41.790Z,53.70
2022-09-15T11:12:08.800Z,53.47
2022-09-15T11:14:58.707Z,52.69
2022-09-15T11:17:25.639Z,51.99
2022-09-15T11:20:18.428Z,53.45
2022-09-15T11:23:05.340Z,53.47
2022-09-15T11:25:39.431Z,53.88
2022-09-15T11:28:28.242Z,55.17
2022-09-15T11:31:04.211Z,54.72
2022-09-15T11:33:38.143Z,51.30
2022-09-15T11:36:21.270Z,51.34
2022-09-15T11:39:00.557Z,51.04
2022-09-15T11:41:30.447Z,50.63
2022-09-15T11:44:20.934Z,50.63
2022-09-15T11:47:09.505Z,51.35
2022-09-15T11:50:04.210Z,52.14
2022-09-15T11:52:52.454Z,51.75
2022-09-15T11:55:22.267Z,50.77
2022-09-15T11:58:21.126Z,50.58
2022-09-15T12:01:14.462Z,50.98
2022-09-15T12:04:02.235Z,52.84
2022-09-15T12:06:42.026Z,52.44
2022-09-15T12:09:18.278Z,50.74
2022-09-15T12:11:52.109Z,52.84
2022-09-15T12:14:31.846Z,50.27
2022-09-15T12:16:59.835Z,51.20
2022-09-15T12:19:39.858Z,50.98
2022-09-15T12:22:07.051Z,53.35
2022-09-15T12:24:39.065Z,51.83
2022-09-15T12:27:10.555Z,51.51
2022-09-15T12:29:42.553Z,51.45
2022-09-15T12:32:26.639Z,50.97
2022-09-15T12:35:07.933Z,51.15
2022-09-15T12:38:03.609Z,49.71
2022-09-15T12:40:30.506Z,50.15
2022-09-15T12:42:58.045Z,50.22
2022-09-15T12:45:28.996Z,52.74
2022-09-15T12:48:02.019Z,51.02
2022-09-15T12:50:32.159Z,50.51
2022-09-15T12:53:02.311Z,49.70
2022-09-15T12:55:35.017Z,50.86
2022-09-15T12:58:08.766Z,50.46
2022-09-15T13:00:50.011Z,51.47
2022-09-15T13:03:43.899Z,52.53
2022-09-15T13:06:10.876Z,52.65
2022-09-15T13:08:37.799Z,51.96
2022-09-15T13:11:29.947Z,52.46
2022-09-15T13:14:08.490Z,52.62
2022-09-15T13:16:41.669Z,52.72
2022-09-15T13:19:41.584Z,52.48
2022-09-15T13:22:11.743Z,52.43
2022-09-15T13:25:05.196Z,53.45
2022-09-15T13:27:38.379Z,53.44
2022-09-15T13:30:43.180Z,53.09
2022-09-15T13:35:02.148Z,53.71
2022-09-15T13:39:48.552Z,53.53
2022-09-15T13:42:31.976Z,53.53
2022-09-15T13:45:08.060Z,53.54
2022-09-15T13:47:42.638Z,54.25
2022-09-15T13:50:26.778Z,52.98
2022-09-15T13:53:16.535Z,52.76
2022-09-15T13:55:45.818Z,54.52
2022-09-15T14:01:07.821Z,54.11
2022-09-15T14:03:42.664Z,53.85
2022-09-15T14:06:26.325Z,53.32
2022-09-15T14:08:57.584Z,55.48
2022-09-15T14:11:29.781Z,54.30
2022-09-15T14:13:59.484Z,53.41
2022-09-15T14:16:35.661Z,53.19
2022-09-15T14:19:20.954Z,53.73
2022-09-15T14:21:53.781Z,54.13
2022-09-15T14:24:31.415Z,53.30
2022-09-15T14:27:09.880Z,52.68
2022-09-15T14:29:44.117Z,52.69
2022-09-15T14:32:16.101Z,53.63
2022-09-15T14:34:44.978Z,53.69
2022-09-15T14:37:19.837Z,54.52
2022-09-15T14:39:57.575Z,53.17
2022-09-15T14:42:48.388Z,54.87
2022-09-15T14:48:18.294Z,53.98
2022-09-15T14:50:53.186Z,55.57
2022-09-15T14:53:23.875Z,55.03
2022-09-15T14:55:53.363Z,54.48
2022-09-15T14:58:37.532Z,55.75
2022-09-15T15:01:04.571Z,55.44
2022-09-15T15:03:53.215Z,55.90
2022-09-15T15:06:30.895Z,56.19
2022-09-15T15:09:30.309Z,55.10
2022-09-15T15:12:06.328Z,54.67
2022-09-15T15:14:35.110Z,54.74
2022-09-15T15:17:08.389Z,55.00
2022-09-15T15:19:41.110Z,55.97
2022-09-15T15:22:09.113Z,55.75
2022-09-15T15:24:41.316Z,54.24
2022-09-15T15:27:44.248Z,54.79
2022-09-15T15:30:32.285Z,54.65
2022-09-15T15:33:02.316Z,55.10
2022-09-15T15:35:31.201Z,54.98
2022-09-15T15:38:10.245Z,56.14
2022-09-15T15:40:40.030Z,56.76
2022-09-15T15:43:15.289Z,57.18
2022-09-15T15:45:58.641Z,57.26
2022-09-15T15:48:26.814Z,56.89
2022-09-15T15:50:54.794Z,57.25
2022-09-15T15:53:22.313Z,57.42
2022-09-15T15:55:49.315Z,57.28
2022-09-15T15:58:16.822Z,58.52
2022-09-15T16:00:53.005Z,58.39
2022-09-15T16:03:23.243Z,58.94
2022-09-15T16:05:57.708Z,58.83
2022-09-15T16:08:33.617Z,59.52
2022-09-15T16:11:02.987Z,60.30
2022-09-15T16:13:30.298Z,59.81
2022-09-15T16:16:00.816Z,60.28
2022-09-15T16:18:29.056Z,60.50
2022-09-15T16:20:56.074Z,60.53
2022-09-15T16:23:23.832Z,59.93
2022-09-15T16:26:05.911Z,60.91
2022-09-15T16:28:32.973Z,60.34
2022-09-15T16:31:00.197Z,60.69
2022-09-15T16:33:27.192Z,60.42
2022-09-15T16:36:07.328Z,59.62
2022-09-15T16:38:36.081Z,60.48
2022-09-15T16:41:04.470Z,60.70
2022-09-15T16:43:31.494Z,61.60
2022-09-15T16:45:58.406Z,61.34
2022-09-15T16:48:25.666Z,62.23
2022-09-15T16:51:16.122Z,63.42
2022-09-15T16:53:40.365Z,62.42
2022-09-15T16:56:10.528Z,63.87
2022-09-15T16:58:37.742Z,64.19
2022-09-15T17:01:05.073Z,64.00
2022-09-15T17:03:32.959Z,65.19
2022-09-15T17:06:01.427Z,64.75
2022-09-15T17:08:33.782Z,65.04
2022-09-15T17:11:03.145Z,65.06
2022-09-15T17:13:33.230Z,65.24
2022-09-15T17:16:01.787Z,65.04
2022-09-15T17:18:29.339Z,66.06
2022-09-15T17:20:56.726Z,66.15
2022-09-15T17:23:31.546Z,66.24
2022-09-15T17:26:05.169Z,66.95
2022-09-15T17:28:34.426Z,66.16
2022-09-15T17:31:03.788Z,66.80
2022-09-15T17:33:32.285Z,67.75
2022-09-15T17:36:00.464Z,66.61
2022-09-15T17:38:28.229Z,67.61
2022-09-15T17:40:58.090Z,66.83
2022-09-15T17:43:27.765Z,67.74
2022-09-15T17:45:56.162Z,67.54
2022-09-15T17:48:24.205Z,68.25
2022-09-15T17:50:51.675Z,67.26
2022-09-15T17:53:29.195Z,67.58
2022-09-15T17:55:56.615Z,67.65
2022-09-15T17:58:26.882Z,67.70
2022-09-15T18:00:54.494Z,67.48
2022-09-15T18:03:23.999Z,67.75
2022-09-15T18:05:51.950Z,66.90
2022-09-15T18:08:18.920Z,67.63
2022-09-15T18:10:46.722Z,68.02
2022-09-15T18:13:16.670Z,67.71
2022-09-15T18:15:43.731Z,67.65
2022-09-15T18:18:14.766Z,67.24
2022-09-15T18:20:42.451Z,67.29
2022-09-15T18:23:14.815Z,67.18
2022-09-15T18:25:42.609Z,67.03
2022-09-15T18:28:09.706Z,66.65
2022-09-15T18:30:42.136Z,66.98
2022-09-15T18:33:15.530Z,67.30
2022-09-15T18:35:42.718Z,65.92
2022-09-15T18:38:10.723Z,66.61
2022-09-15T18:40:37.770Z,66.68
2022-09-15T18:43:04.829Z,67.28
2022-09-15T18:45:31.827Z,66.63
2022-09-15T18:47:58.762Z,66.99
2022-09-15T18:50:29.048Z,67.17
2022-09-15T18:52:55.990Z,67.53
2022-09-15T18:55:23.324Z,67.57
2022-09-15T18:57:50.251Z,67.61
2022-09-15T19:00:20.482Z,67.31
2022-09-15T19:02:47.657Z,67.88
2022-09-15T19:05:16.381Z,67.67
2022-09-15T19:07:44.721Z,67.66
2022-09-15T19:10:13.511Z,67.87
2022-09-15T19:12:40.613Z,67.17
2022-09-15T19:15:11.399Z,67.56
2022-09-15T19:17:39.674Z,67.57
2022-09-15T19:20:09.124Z,68.13
2022-09-15T19:22:37.302Z,67.98
2022-09-15T19:25:06.231Z,67.52
2022-09-15T19:27:34.686Z,67.35
2022-09-15T19:30:02.831Z,66.74
2022-09-15T19:32:30.050Z,67.08
2022-09-15T19:34:56.980Z,66.88
2022-09-15T19:37:24.463Z,66.76
2022-09-15T19:39:51.698Z,67.14
2022-09-15T19:42:18.756Z,67.70
2022-09-15T19:44:46.264Z,67.95
2022-09-15T19:47:13.206Z,67.49
2022-09-15T19:49:40.167Z,67.11
2022-09-15T19:52:08.025Z,67.70
2022-09-15T19:54:35.327Z,67.18
2022-09-15T19:57:02.682Z,67.74
2022-09-15T19:59:31.573Z,67.69
2022-09-15T20:02:00.396Z,68.24
2022-09-15T20:07:08.895Z,68.32
2022-09-15T20:09:36.265Z,68.70
2022-09-15T20:12:03.732Z,68.45
2022-09-15T20:14:31.795Z,67.57
2022-09-15T20:17:01.185Z,68.18
2022-09-15T20:19:29.201Z,68.04
2022-09-15T20:21:56.149Z,68.61
2022-09-15T20:24:24.496Z,68.88
2022-09-15T20:26:51.897Z,68.54
2022-09-15T20:29:19.732Z,68.13
2022-09-15T20:31:54.798Z,68.27
2022-09-15T20:34:21.773Z,67.99
2022-09-15T20:36:49.252Z,67.94
2022-09-15T20:39:18.547Z,68.49
2022-09-15T20:41:45.584Z,67.90
2022-09-15T20:44:12.897Z,67.81
2022-09-15T20:46:40.399Z,67.90
2022-09-15T20:49:07.837Z,67.26
2022-09-15T20:51:34.956Z,68.24
2022-09-15T20:54:04.403Z,67.96
2022-09-15T20:56:33.093Z,67.39
2022-09-15T20:59:00.951Z,67.56
2022-09-15T21:01:32.238Z,67.94
2022-09-15T21:03:59.609Z,67.35
2022-09-15T21:06:28.062Z,67.95
2022-09-15T21:08:59.107Z,67.76
2022-09-15T21:11:27.763Z,67.68
2022-09-15T21:13:55.767Z,67.22
2022-09-15T21:16:25.335Z,67.76
2022-09-15T21:18:52.830Z,68.16
2022-09-15T21:21:28.710Z,67.63
2022-09-15T21:23:59.027Z,67.64
2022-09-15T21:26:28.227Z,68.18
2022-09-15T21:28:56.357Z,67.79
2022-09-15T21:31:26.542Z,68.52
2022-09-15T21:33:54.557Z,68.13
2022-09-15T21:36:28.030Z,68.56
2022-09-15T21:38:56.744Z,68.82
2022-09-15T21:41:26.871Z,69.09
2022-09-15T21:43:55.452Z,69.93
2022-09-15T21:46:25.856Z,69.71
2022-09-15T21:48:53.153Z,70.01
2022-09-15T21:51:24.908Z,70.12
2022-09-15T21:53:56.537Z,70.14
2022-09-15T21:56:24.537Z,69.82
2022-09-15T21:58:51.815Z,70.51
2022-09-15T22:01:21.463Z,70.55
2022-09-15T22:03:51.844Z,71.35
2022-09-15T22:06:20.467Z,71.89
2022-09-15T22:08:47.708Z,71.45
2022-09-15T22:11:14.772Z,70.80
2022-09-15T22:13:43.924Z,71.48
2022-09-15T22:16:16.909Z,71.66
2022-09-15T22:18:44.908Z,72.54
2022-09-15T22:21:16.215Z,72.27
2022-09-15T22:23:44.354Z,72.35
2022-09-15T22:26:14.825Z,73.18
2022-09-15T22:28:41.897Z,73.16
2022-09-15T22:31:10.710Z,73.56
2022-09-15T22:33:39.863Z,73.24
2022-09-15T22:36:10.862Z,73.00
2022-09-15T22:38:38.295Z,72.96
2022-09-15T22:41:07.830Z,72.51
2022-09-15T22:43:35.209Z,73.12
2022-09-15T22:46:02.658Z,73.64
2022-09-15T22:48:29.720Z,72.78
2022-09-15T22:50:57.036Z,73.19
2022-09-15T22:53:24.129Z,73.56
2022-09-15T22:55:51.855Z,72.75
2022-09-15T22:58:19.409Z,73.48
2022-09-15T23:00:46.510Z,74.14
2022-09-15T23:03:13.660Z,73.78
2022-09-15T23:05:40.629Z,74.25
2022-09-15T23:08:09.396Z,72.97
2022-09-15T23:10:36.320Z,74.07
2022-09-15T23:13:03.290Z,74.23
2022-09-15T23:15:30.599Z,73.87
2022-09-15T23:17:57.559Z,74.21
2022-09-15T23:20:24.541Z,74.36
2022-09-15T23:22:52.905Z,74.02
2022-09-15T23:25:19.865Z,73.50
2022-09-15T23:27:46.857Z,74.13
2022-09-15T23:30:14.501Z,74.17
2022-09-15T23:32:41.427Z,74.10
2022-09-15T23:35:08.733Z,74.76
2022-09-15T23:37:35.752Z,74.54
2022-09-15T23:40:02.967Z,74.67
2022-09-15T23:42:29.952Z,73.21
2022-09-15T23:44:56.884Z,74.72
2022-09-15T23:47:23.863Z,75.48
2022-09-15T23:49:50.804Z,74.45
2022-09-15T23:52:17.722Z,74.55
2022-09-15T23:54:44.701Z,76.28
2022-09-15T23:57:12.083Z,74.64
2022-09-15T23:59:39.054Z,74.71
